createdAt,value
2022-08-21T00:02:15.752Z,53.66
2022-08-21T00:07:08.541Z,53.53
2022-08-21T00:12:01.181Z,53.29
2022-08-21T00:16:55.848Z,53.07
2022-08-21T00:21:46.482Z,53.2
2022-08-21T00:26:39.104Z,53.27
2022-08-21T00:31:31.692Z,53.25
2022-08-21T00:36:24.438Z,53.34
2022-08-21T00:41:32.240Z,53.51
2022-08-21T00:46:09.770Z,53.49
2022-08-21T00:51:02.297Z,53.42
2022-08-21T00:55:55.678Z,53.21
2022-08-21T01:00:47.796Z,53.45
2022-08-21T01:05:40.414Z,53.17
2022-08-21T01:10:33.047Z,53.15
2022-08-21T01:15:25.882Z,53.01
2022-08-21T01:20:18.631Z,52.84
2022-08-21T01:25:11.399Z,52.91
2022-08-21T01:30:05.407Z,52.91
2022-08-21T01:34:56.452Z,52.66
2022-08-21T01:39:49.324Z,52.69
2022-08-21T01:44:42.130Z,52.7
2022-08-21T01:54:27.691Z,51.99
2022-08-21T02:04:13.189Z,52.25
2022-08-21T02:09:05.775Z,52.14
2022-08-21T02:13:58.586Z,52.19
2022-08-21T02:18:51.097Z,52.22
2022-08-21T02:23:43.938Z,52.02
2022-08-21T02:28:36.549Z,51.94
2022-08-21T02:33:29.123Z,51.87
2022-08-21T02:38:21.900Z,51.65
2022-08-21T02:43:14.789Z,51.69
2022-08-21T02:48:07.424Z,51.69
2022-08-21T02:53:00.346Z,51.56
2022-08-21T02:57:52.525Z,51.44
2022-08-21T03:02:45.158Z,51.25
2022-08-21T03:07:37.763Z,51.52
2022-08-21T03:12:30.500Z,51.27
2022-08-21T03:17:29.646Z,51.07
2022-08-21T03:22:15.726Z,51.09
2022-08-21T03:27:09.281Z,51.01
2022-08-21T03:32:01.043Z,51.02
2022-08-21T03:36:53.672Z,50.94
2022-08-21T03:41:46.224Z,51.03
2022-08-21T03:46:38.886Z,50.8
2022-08-21T03:51:31.281Z,50.94
2022-08-21T03:56:24.090Z,50.8
2022-08-21T04:01:16.742Z,50.71
2022-08-21T04:06:09.483Z,50.77
2022-08-21T04:11:02.196Z,50.68
2022-08-21T04:15:55.001Z,50.81
2022-08-21T04:20:50.062Z,50.48
2022-08-21T04:25:40.276Z,50.42
2022-08-21T04:30:32.777Z,50.58
2022-08-21T04:35:25.389Z,50.48
2022-08-21T04:40:17.776Z,50.34
2022-08-21T04:45:10.348Z,50.35
2022-08-21T04:50:03.085Z,50.4
2022-08-21T04:54:55.797Z,50.36
2022-08-21T04:59:48.310Z,50.41
2022-08-21T05:04:41.018Z,51.07
2022-08-21T05:09:33.299Z,51.13
2022-08-21T05:14:26.023Z,51.16
2022-08-21T05:19:18.699Z,51.04
2022-08-21T05:24:11.294Z,51.4
2022-08-21T05:29:03.791Z,54.55
2022-08-21T05:33:56.273Z,52.48
2022-08-21T05:38:48.926Z,53.1
2022-08-21T05:43:41.316Z,53.15
2022-08-21T05:48:33.943Z,53.81
2022-08-21T05:53:26.449Z,54.16
2022-08-21T05:58:19.373Z,54.27
2022-08-21T06:03:11.839Z,54.09
2022-08-21T06:08:03.520Z,54.64
2022-08-21T06:12:56.120Z,56.85
2022-08-21T06:17:48.070Z,57.51
2022-08-21T06:22:41.676Z,54.64
2022-08-21T06:27:34.175Z,55.03
2022-08-21T06:32:26.843Z,55.38
2022-08-21T06:37:19.506Z,55.18
2022-08-21T06:42:11.792Z,56.3
2022-08-21T06:47:03.809Z,57.65
2022-08-21T06:51:56.073Z,57.35
2022-08-21T06:56:47.978Z,59.57
2022-08-21T07:01:39.987Z,63.64
2022-08-21T07:06:33.998Z,58.94
2022-08-21T07:11:26.061Z,61.54
2022-08-21T07:16:19.519Z,59.62
2022-08-21T07:21:12.082Z,59.29
2022-08-21T07:26:03.822Z,61.76
2022-08-21T07:30:56.813Z,60.63
2022-08-21T07:35:49.278Z,60.77
2022-08-21T07:40:42.865Z,59.56
2022-08-21T07:45:35.232Z,59.87
2022-08-21T07:50:27.802Z,59.37
2022-08-21T08:00:13.570Z,58.93
2022-08-21T08:05:06.400Z,58.67
2022-08-21T08:09:59.240Z,58.53
2022-08-21T08:14:51.820Z,58.2
2022-08-21T08:19:41.251Z,58.67
2022-08-21T08:24:34.944Z,58.7
2022-08-21T08:29:28.059Z,59.43
2022-08-21T08:34:23.677Z,58.01
2022-08-21T08:39:13.890Z,56.88
2022-08-21T08:44:06.002Z,56.33
2022-08-21T08:48:58.462Z,55.51
2022-08-21T08:53:51.200Z,54.41
2022-08-21T08:58:44.034Z,54.18
2022-08-21T09:03:36.462Z,53.88
2022-08-21T09:08:29.109Z,52.99
2022-08-21T09:13:21.869Z,53.11
2022-08-21T09:18:14.357Z,53.16
2022-08-21T09:23:07.009Z,53.15
2022-08-21T09:27:59.478Z,52.73
2022-08-21T09:32:52.422Z,52.2
2022-08-21T09:37:39.322Z,51.62
2022-08-21T09:42:32.502Z,51.32
2022-08-21T09:47:26.895Z,50.86
2022-08-21T09:52:19.177Z,50.75
2022-08-21T09:57:11.691Z,50.12
2022-08-21T10:02:04.420Z,50.04
2022-08-21T10:06:58.148Z,49.61
2022-08-21T10:11:50.023Z,49.55
2022-08-21T10:16:42.554Z,48.96
2022-08-21T10:21:35.225Z,48.03
2022-08-21T10:26:27.898Z,47.77
2022-08-21T10:31:20.529Z,48.24
2022-08-21T10:36:13.353Z,48.4
2022-08-21T10:41:05.893Z,48.43
2022-08-21T10:45:59.028Z,48.08
2022-08-21T10:50:52.127Z,48.57
2022-08-21T10:55:44.955Z,48.72
2022-08-21T11:00:37.740Z,48.67
2022-08-21T11:05:30.524Z,48.58
2022-08-21T11:10:23.182Z,48.41
2022-08-21T11:15:28.845Z,48.37
2022-08-21T11:20:08.668Z,48.16
2022-08-21T11:25:01.389Z,48.17
2022-08-21T11:29:54.062Z,48.62
2022-08-21T11:34:46.645Z,48.26
2022-08-21T11:39:39.528Z,48.25
2022-08-21T11:44:32.284Z,48.21
2022-08-21T11:49:24.919Z,47.86
2022-08-21T11:54:17.737Z,47.75
2022-08-21T11:59:10.618Z,47.5
2022-08-21T12:04:03.518Z,47.74
2022-08-21T12:08:56.141Z,47.59
2022-08-21T12:13:48.855Z,47.61
2022-08-21T12:18:41.605Z,47.59
2022-08-21T12:23:34.339Z,47.38
2022-08-21T12:28:27.155Z,47.35
2022-08-21T12:33:19.815Z,47.27
2022-08-21T12:38:12.609Z,46.89
2022-08-21T12:43:05.515Z,46.51
2022-08-21T12:47:57.889Z,45.38
2022-08-21T12:52:50.812Z,46.74
2022-08-21T12:57:43.786Z,45.92
2022-08-21T13:02:36.503Z,45.11
2022-08-21T13:07:29.287Z,45.22
2022-08-21T13:12:22.000Z,44.96
2022-08-21T13:17:16.433Z,45.44
2022-08-21T13:22:30.954Z,45.44
2022-08-21T13:26:59.989Z,45.08
2022-08-21T13:31:54.755Z,45.1
2022-08-21T13:36:47.234Z,44.89
2022-08-21T13:41:39.993Z,45.33
2022-08-21T13:46:32.702Z,45.07
2022-08-21T13:51:25.421Z,44.92
2022-08-21T13:56:18.192Z,44.89
2022-08-21T14:01:10.982Z,44.87
2022-08-21T14:06:03.799Z,45.11
2022-08-21T14:10:57.601Z,45.06
2022-08-21T14:15:49.407Z,44.93
2022-08-21T14:20:41.950Z,44.18
2022-08-21T14:25:34.601Z,44.55
2022-08-21T14:30:27.055Z,43.53
2022-08-21T14:35:21.096Z,43.67
2022-08-21T14:40:12.386Z,43.61
2022-08-21T14:45:05.243Z,43.69
2022-08-21T14:49:57.901Z,43.45
2022-08-21T14:54:50.621Z,43.5
2022-08-21T14:59:43.479Z,43.87
2022-08-21T15:04:36.352Z,43.66
2022-08-21T15:14:21.974Z,43.17
2022-08-21T15:24:07.384Z,43.23
2022-08-21T15:29:00.182Z,43.25
2022-08-21T15:33:52.868Z,43.28
2022-08-21T15:38:45.413Z,42.72
2022-08-21T15:43:38.053Z,42.85
2022-08-21T15:48:30.647Z,42.88
2022-08-21T15:53:23.252Z,42.93
2022-08-21T15:58:15.852Z,43.12
2022-08-21T16:03:08.658Z,43.28
2022-08-21T16:08:01.420Z,43.22
2022-08-21T16:12:54.068Z,43.02
2022-08-21T16:17:46.731Z,42.96
2022-08-21T16:22:44.067Z,42.78
2022-08-21T16:27:32.227Z,42.86
2022-08-21T16:32:24.716Z,42.6
2022-08-21T16:37:20.056Z,42.75
2022-08-21T16:42:10.432Z,44.03
2022-08-21T16:47:03.182Z,43.12
2022-08-21T16:51:55.881Z,43.44
2022-08-21T16:56:48.441Z,43.27
2022-08-21T17:01:41.094Z,43.43
2022-08-21T17:06:33.678Z,43.19
2022-08-21T17:11:37.690Z,43.41
2022-08-21T17:16:18.919Z,42.95
2022-08-21T17:21:14.378Z,42.55
2022-08-21T17:26:04.824Z,42.53
2022-08-21T17:30:57.455Z,42.41
2022-08-21T17:35:49.966Z,42.56
2022-08-21T17:40:42.783Z,42.78
2022-08-21T17:45:37.220Z,42.82
2022-08-21T17:50:27.973Z,42.35
2022-08-21T17:55:20.565Z,42.26
2022-08-21T18:00:13.049Z,42.19
2022-08-21T18:05:05.735Z,42.18
2022-08-21T18:09:58.256Z,41.63
2022-08-21T18:14:51.236Z,41.53
2022-08-21T18:19:48.826Z,42.3
2022-08-21T18:24:36.645Z,42.58
2022-08-21T18:29:28.820Z,42.59
2022-08-21T18:34:21.628Z,42.79
2022-08-21T18:39:35.255Z,42.93
2022-08-21T18:44:06.786Z,43.03
2022-08-21T18:48:59.464Z,43.34
2022-08-21T18:53:53.798Z,43.42
2022-08-21T18:58:45.519Z,43.5
2022-08-21T19:03:38.342Z,43.52
2022-08-21T19:08:31.046Z,43.65
2022-08-21T19:13:23.793Z,43.9
2022-08-21T19:18:16.502Z,44.1
2022-08-21T19:23:09.309Z,44.21
2022-08-21T19:28:02.051Z,44.47
2022-08-21T19:32:54.309Z,44.6
2022-08-21T19:37:47.094Z,44.47
2022-08-21T19:42:39.635Z,44.6
2022-08-21T19:47:32.971Z,44.84
2022-08-21T19:52:24.947Z,44.62
2022-08-21T20:02:10.522Z,44.63
2022-08-21T20:11:55.897Z,44.53
2022-08-21T20:21:44.129Z,44.96
2022-08-21T20:26:33.895Z,44.78
2022-08-21T20:31:26.690Z,44.61
2022-08-21T20:36:19.487Z,44.55
2022-08-21T20:41:18.035Z,44.25
2022-08-21T20:46:05.183Z,44.15
2022-08-21T20:50:57.874Z,44.09
2022-08-21T20:55:50.667Z,44.22
2022-08-21T21:00:43.360Z,44.14
2022-08-21T21:05:36.155Z,43.87
2022-08-21T21:15:23.465Z,43.96
2022-08-21T21:20:14.092Z,44.04
2022-08-21T21:25:06.749Z,43.83
2022-08-21T21:29:59.408Z,43.82
2022-08-21T21:34:52.091Z,43.76
2022-08-21T21:39:44.732Z,43.75
2022-08-21T21:44:37.446Z,43.78
2022-08-21T21:49:30.325Z,43.72
2022-08-21T21:54:22.771Z,43.79
2022-08-21T21:59:15.516Z,43.63
2022-08-21T22:04:08.056Z,43.61
2022-08-21T22:09:00.785Z,43.75
2022-08-21T22:13:53.536Z,43.8
2022-08-21T22:18:46.086Z,43.76
2022-08-21T22:23:38.751Z,43.5
2022-08-21T22:28:31.348Z,43.35
2022-08-21T22:33:24.014Z,43.55
2022-08-21T22:38:16.496Z,43.6
2022-08-21T22:43:09.239Z,43.47
2022-08-21T22:48:01.814Z,43.76
2022-08-21T22:52:54.505Z,43.48
2022-08-21T22:57:47.247Z,43.7
2022-08-21T23:02:39.804Z,43.46
2022-08-21T23:07:32.801Z,43.42
2022-08-21T23:12:32.982Z,43.45
2022-08-21T23:17:17.848Z,43.73
2022-08-21T23:22:10.348Z,43.58
2022-08-21T23:27:03.033Z,43.46
2022-08-21T23:31:55.825Z,43.36
2022-08-21T23:36:48.714Z,43.25
2022-08-21T23:41:41.452Z,43.31
2022-08-21T23:51:26.689Z,43.55
2022-08-21T23:56:19.337Z,43.46
